Disclaimer

Please do not use the information listed here in-flight or in-navigation, as they are not provided to us by the airports but are provided by volunteers, so they might be outdated.

Search


Regions


Airport information page

Radio informations:
Tower (TWR) - 128.8 MHz
KIRKUK - 129.75 MHz
KIRKUK ACC - 125.3 MHz

Airport informations:
Latitude: 36° 14' 15.40" N
Longitude: 043° 57' 47.37" E
Elevation: 1341 feet - 409 meters
Operating hours: 24 hour operations
Operating agency: Civil government, landing fees and diplomatic clearance may be required
Timezone: UTC+3(+4DT)
Fuel: N/A

Runway information:
15/33 - 9197 x 95 feet< - >2803 x 29 meters
15L/33R - 4085 x 105 feet< - >1245 x 32 meters
18/36 - 13890 x 225 feet< - >4234 x 69 meters

Recent METARs:
ORER 210000Z 17005KT 6000 NSC 09/08 Q1021 NOSIG
ORER 210000Z 17005KT 6000 NSC 09/08 Q1021 NOSIG
ORER 210100Z 14003KT 6000 NSC 12/08 Q1021 NOSIG

Airport on the map: